PWSweather.com
Personal Weather Stations
Station Observations
KNVELKO7
Elko, NV 89801

Elko, NV 89801

Lat: 40.963233, Lon: -115.592836

Elevation: 5230

Station Type: WS-2812

Latest ConditionsUpdated 4:45:32 PM PDT Saturday, Mar 28, 2015
Currently Today's Max Today's Min Today's Average
Temperature 65.9°F18.8°C 68.8°F20.4°C 27.7°F-2.4°C 48.2°F9.0°C
Dew Point 15.8°F-9.0°C 33.4°F0.8°C 11.3°F-11.5°C 22.7°F-5.2°C
Winds 11.9 mph WSW19.2 kmh WSW 22.0 mph SSW35.4 kmh SSW - 7.5 mph 12.1 kmh
Wind Gusts 16.3 mph26.2 kmh 26.2 mph42.2 kmh - -
Humidity 15% 66% 12% 41%
Pressure 30.21 in1023.0 mb 30.22 in1023.4 mb 30.13 in1020.3 mb -
Hour Temp Dew Point Humidity Winds Wind Gusts Pressure Precip Precip Rate Daily Precip Total
04:45 PM 65.9°F18.8°C 15.8°F-9.0°C 15% 11.9 mph WSW19.2 kmh WSW 16.3 mph26.2 kmh 30.21 in1023.0 mb 0.00 in0.0 mm 0.00 in0.0 mm 0.00 in0.0 mm
04:40 PM 65.9°F18.8°C 15.8°F-9.0°C 15% 6.4 mph NW10.3 kmh NW 13.9 mph22.4 kmh 30.21 in1023.0 mb 0.00 in0.0 mm 0.00 in0.0 mm 0.00 in0.0 mm
04:35 PM 65.9°F18.8°C 15.8°F-9.0°C 15% 10.3 mph NNW16.6 kmh NNW 16.1 mph25.9 kmh 30.21 in1023.0 mb 0.00 in0.0 mm 0.00 in0.0 mm 0.00 in0.0 mm
04:30 PM 65.9°F18.8°C 12.6°F-10.8°C 13% 14.9 mph NW24.0 kmh NW 16.1 mph25.9 kmh 30.21 in1023.0 mb 0.00 in0.0 mm 0.00 in0.0 mm 0.00 in0.0 mm
04:25 PM 65.9°F18.8°C 15.8°F-9.0°C 15% 12.2 mph NW19.6 kmh NW 16.3 mph26.2 kmh 30.21 in1023.0 mb 0.00 in0.0 mm 0.00 in0.0 mm 0.00 in0.0 mm
04:20 PM 66.1°F18.9°C 12.7°F-10.7°C 13% 12.1 mph NW19.5 kmh NW 16.3 mph26.2 kmh 30.21 in1023.0 mb 0.00 in0.0 mm 0.00 in0.0 mm 0.00 in0.0 mm
04:15 PM 66.4°F19.1°C 16.2°F-8.8°C 15% 12.9 mph W20.8 kmh W 16.3 mph26.2 kmh 30.21 in1023.0 mb 0.00 in0.0 mm 0.00 in0.0 mm 0.00 in0.0 mm
04:10 PM 66.6°F19.2°C 17.9°F-7.8°C 16% 12.2 mph W19.6 kmh W 19.2 mph30.9 kmh 30.21 in1023.0 mb 0.00 in0.0 mm 0.00 in0.0 mm 0.00 in0.0 mm
04:05 PM 66.4°F19.1°C 14.6°F-9.7°C 14% 14.3 mph WNW23.0 kmh WNW 19.2 mph30.9 kmh 30.21 in1023.0 mb 0.00 in0.0 mm 0.00 in0.0 mm 0.00 in0.0 mm
04:00 PM 66.4°F19.1°C 16.2°F-8.8°C 15% 10.9 mph NNW17.5 kmh NNW 19.2 mph30.9 kmh 30.21 in1023.0 mb 0.00 in0.0 mm 0.00 in0.0 mm 0.00 in0.0 mm
03:54 PM 66.2°F19.0°C 11.3°F-11.5°C 12% 12.2 mph NW19.6 kmh NW 19.2 mph30.9 kmh 30.21 in1023.0 mb 0.00 in0.0 mm 0.00 in0.0 mm 0.00 in0.0 mm
03:49 PM 66.4°F19.1°C 11.4°F-11.4°C 12% 13.9 mph NW22.4 kmh NW 16.3 mph26.2 kmh 30.21 in1023.0 mb 0.00 in0.0 mm 0.00 in0.0 mm 0.00 in0.0 mm
03:44 PM 66.2°F19.0°C 11.3°F-11.5°C 12% 11.8 mph WNW19.0 kmh WNW 17.2 mph27.7 kmh 30.21 in1023.0 mb 0.00 in0.0 mm 0.00 in0.0 mm 0.00 in0.0 mm
03:39 PM 66.2°F19.0°C 11.3°F-11.5°C 12% 15.4 mph NW24.8 kmh NW 17.9 mph28.8 kmh 30.21 in1023.0 mb 0.00 in0.0 mm 0.00 in0.0 mm 0.00 in0.0 mm
03:34 PM 66.2°F19.0°C 11.3°F-11.5°C 12% 14.9 mph NW24.0 kmh NW 17.9 mph28.8 kmh 30.20 in1022.7 mb 0.00 in0.0 mm 0.00 in0.0 mm 0.00 in0.0 mm
03:29 PM 66.1°F18.9°C 12.7°F-10.7°C 13% 16.1 mph W25.9 kmh W 24.2 mph38.9 kmh 30.20 in1022.7 mb 0.00 in0.0 mm 0.00 in0.0 mm 0.00 in0.0 mm
03:24 PM 66.2°F19.0°C 17.7°F-7.9°C 16% 13.5 mph NW21.7 kmh NW 24.2 mph38.9 kmh 30.20 in1022.7 mb 0.00 in0.0 mm 0.00 in0.0 mm 0.00 in0.0 mm
03:19 PM 66.6°F19.2°C 21.1°F-6.1°C 18% 14.3 mph NNW23.0 kmh NNW 15.7 mph25.3 kmh 30.20 in1022.7 mb 0.00 in0.0 mm 0.00 in0.0 mm 0.00 in0.0 mm
03:14 PM 66.2°F19.0°C 22.3°F-5.4°C 19% 14.4 mph NW23.2 kmh NW 15.7 mph25.3 kmh 30.21 in1023.0 mb 0.00 in0.0 mm 0.00 in0.0 mm 0.00 in0.0 mm
03:09 PM 65.9°F18.8°C 24.7°F-4.1°C 21% 12.5 mph W20.1 kmh W 18.8 mph30.3 kmh 30.20 in1022.7 mb 0.00 in0.0 mm 0.00 in0.0 mm 0.00 in0.0 mm
03:04 PM 65.7°F18.7°C 24.5°F-4.2°C 21% 14.3 mph NW23.0 kmh NW 19.0 mph30.6 kmh 30.20 in1022.7 mb 0.00 in0.0 mm 0.00 in0.0 mm 0.00 in0.0 mm
02:59 PM 65.7°F18.7°C 24.5°F-4.2°C 21% 15.8 mph NW25.4 kmh NW 20.1 mph32.3 kmh 30.21 in1023.0 mb 0.00 in0.0 mm 0.00 in0.0 mm 0.00 in0.0 mm
02:54 PM 65.3°F18.5°C 25.2°F-3.8°C 22% 18.2 mph NW29.3 kmh NW 20.1 mph32.3 kmh 30.21 in1023.0 mb 0.00 in0.0 mm 0.00 in0.0 mm 0.00 in0.0 mm
02:49 PM 65.5°F18.6°C 25.4°F-3.7°C 22% 13.9 mph W22.4 kmh W 19.2 mph30.9 kmh 30.21 in1023.0 mb 0.00 in0.0 mm 0.00 in0.0 mm 0.00 in0.0 mm
02:44 PM 65.9°F18.8°C 26.6°F-3.0°C 23% 17.7 mph NW28.5 kmh NW 18.3 mph29.5 kmh 30.21 in1023.0 mb 0.00 in0.0 mm 0.00 in0.0 mm 0.00 in0.0 mm
02:39 PM 65.5°F18.6°C 26.4°F-3.1°C 23% 16.6 mph NW26.7 kmh NW 17.2 mph27.7 kmh 30.21 in1023.0 mb 0.00 in0.0 mm 0.00 in0.0 mm 0.00 in0.0 mm
02:34 PM 65.2°F18.4°C 26.1°F-3.3°C 23% 15.7 mph NW25.3 kmh NW 16.6 mph26.7 kmh 30.21 in1023.0 mb 0.00 in0.0 mm 0.00 in0.0 mm 0.00 in0.0 mm
02:29 PM 65.3°F18.5°C 26.2°F-3.2°C 23% 12.5 mph NW20.1 kmh NW 18.6 mph29.9 kmh 30.21 in1023.0 mb 0.00 in0.0 mm 0.00 in0.0 mm 0.00 in0.0 mm
02:24 PM 65.0°F18.3°C 27.9°F-2.3°C 25% 17.5 mph NW28.2 kmh NW 19.7 mph31.7 kmh 30.21 in1023.0 mb 0.00 in0.0 mm 0.00 in0.0 mm 0.00 in0.0 mm
02:19 PM 65.3°F18.5°C 29.3°F-1.5°C 26% 15.4 mph NW24.8 kmh NW 19.7 mph31.7 kmh 30.21 in1023.0 mb 0.00 in0.0 mm 0.00 in0.0 mm 0.00 in0.0 mm
02:14 PM 65.5°F18.6°C 29.3°F-1.5°C 26% 11.2 mph WSW18.0 kmh WSW 19.9 mph32.0 kmh 30.21 in1023.0 mb 0.00 in0.0 mm 0.00 in0.0 mm 0.00 in0.0 mm
02:09 PM 65.5°F18.6°C 31.4°F-0.3°C 28% 19.5 mph NW31.4 kmh NW 19.9 mph32.0 kmh 30.21 in1023.0 mb 0.00 in0.0 mm 0.00 in0.0 mm 0.00 in0.0 mm
02:04 PM 65.2°F18.4°C 32.0°F0.0°C 29% 17.9 mph NW28.8 kmh NW 21.9 mph35.2 kmh 30.21 in1023.0 mb 0.00 in0.0 mm 0.00 in0.0 mm 0.00 in0.0 mm
01:58 PM 65.2°F18.4°C 31.1°F-0.5°C 28% 14.5 mph WNW23.3 kmh WNW 21.9 mph35.2 kmh 30.22 in1023.4 mb 0.00 in0.0 mm 0.00 in0.0 mm 0.00 in0.0 mm
01:53 PM 65.3°F18.5°C 32.2°F0.1°C 29% 18.5 mph NW29.8 kmh NW 21.5 mph34.6 kmh 30.22 in1023.4 mb 0.00 in0.0 mm 0.00 in0.0 mm 0.00 in0.0 mm
01:48 PM 65.2°F18.4°C 32.0°F0.0°C 29% 17.6 mph NNW28.3 kmh NNW 19.9 mph32.0 kmh 30.22 in1023.4 mb 0.00 in0.0 mm 0.00 in0.0 mm 0.00 in0.0 mm
01:43 PM 65.2°F18.4°C 33.0°F0.6°C 30% 19.3 mph NW31.1 kmh NW 21.5 mph34.6 kmh 30.22 in1023.4 mb 0.00 in0.0 mm 0.00 in0.0 mm 0.00 in0.0 mm
01:38 PM 65.2°F18.4°C 32.0°F0.0°C 29% 20.8 mph NNW33.5 kmh NNW 23.7 mph38.1 kmh 30.22 in1023.4 mb 0.00 in0.0 mm 0.00 in0.0 mm 0.00 in0.0 mm
01:33 PM 65.3°F18.5°C 32.2°F0.1°C 29% 16.9 mph W27.2 kmh W 23.7 mph38.1 kmh 30.21 in1023.0 mb 0.00 in0.0 mm 0.00 in0.0 mm 0.00 in0.0 mm
01:29 PM 65.2°F18.4°C 33.0°F0.6°C 30% 14.6 mph W23.5 kmh W 21.5 mph34.6 kmh 30.21 in1023.0 mb 0.00 in0.0 mm 0.00 in0.0 mm 0.00 in0.0 mm
01:24 PM 65.2°F18.4°C 32.0°F0.0°C 29% 18.7 mph W30.1 kmh W 23.7 mph38.1 kmh 30.21 in1023.0 mb 0.00 in0.0 mm 0.00 in0.0 mm 0.00 in0.0 mm
01:19 PM 64.8°F18.2°C 31.8°F-0.1°C 29% 18.3 mph W29.5 kmh W 26.2 mph42.2 kmh 30.21 in1023.0 mb 0.00 in0.0 mm 0.00 in0.0 mm 0.00 in0.0 mm
01:14 PM 64.8°F18.2°C 31.8°F-0.1°C 29% 22.0 mph WNW35.4 kmh WNW 26.2 mph42.2 kmh 30.21 in1023.0 mb 0.00 in0.0 mm 0.00 in0.0 mm 0.00 in0.0 mm
01:09 PM 65.0°F18.3°C 31.9°F-0.1°C 29% 19.7 mph NW31.7 kmh NW 25.9 mph41.7 kmh 30.21 in1023.0 mb 0.00 in0.0 mm 0.00 in0.0 mm 0.00 in0.0 mm
01:04 PM 65.9°F18.8°C 31.7°F-0.2°C 28% 21.1 mph NW34.0 kmh NW 25.9 mph41.7 kmh 30.21 in1023.0 mb 0.00 in0.0 mm 0.00 in0.0 mm 0.00 in0.0 mm
12:58 PM 66.8°F19.3°C 31.4°F-0.3°C 27% 16.5 mph WNW26.6 kmh WNW 20.1 mph32.3 kmh 30.21 in1023.0 mb 0.00 in0.0 mm 0.00 in0.0 mm 0.00 in0.0 mm
12:53 PM 68.4°F20.2°C 30.8°F-0.7°C 25% 19.0 mph WNW30.6 kmh WNW 19.2 mph30.9 kmh 30.21 in1023.0 mb 0.00 in0.0 mm 0.00 in0.0 mm 0.00 in0.0 mm
12:48 PM 68.2°F20.1°C 28.7°F-1.8°C 23% 11.0 mph SW17.7 kmh SW 18.8 mph30.3 kmh 30.21 in1023.0 mb 0.00 in0.0 mm 0.00 in0.0 mm 0.00 in0.0 mm
12:43 PM 68.8°F20.4°C 28.2°F-2.1°C 22% 18.3 mph SW29.5 kmh SW 18.8 mph30.3 kmh 30.21 in1023.0 mb 0.00 in0.0 mm 0.00 in0.0 mm 0.00 in0.0 mm
12:38 PM 67.9°F19.9°C 28.4°F-2.0°C 23% 11.8 mph WSW19.0 kmh WSW 20.8 mph33.5 kmh 30.21 in1023.0 mb 0.00 in0.0 mm 0.00 in0.0 mm 0.00 in0.0 mm
12:33 PM 67.0°F19.4°C 26.6°F-3.0°C 22% 9.9 mph SW15.9 kmh SW 20.8 mph33.5 kmh 30.21 in1023.0 mb 0.00 in0.0 mm 0.00 in0.0 mm 0.00 in0.0 mm
12:28 PM 67.3°F19.6°C 25.9°F-3.4°C 21% 13.3 mph WSW21.4 kmh WSW 16.6 mph26.7 kmh 30.21 in1023.0 mb 0.00 in0.0 mm 0.00 in0.0 mm 0.00 in0.0 mm
12:23 PM 67.3°F19.6°C 26.9°F-2.8°C 22% 13.1 mph WSW21.1 kmh WSW 17.4 mph28.0 kmh 30.21 in1023.0 mb 0.00 in0.0 mm 0.00 in0.0 mm 0.00 in0.0 mm
12:18 PM 67.0°F19.4°C 26.6°F-3.0°C 22% 10.1 mph WSW16.3 kmh WSW 17.4 mph28.0 kmh 30.21 in1023.0 mb 0.00 in0.0 mm 0.00 in0.0 mm 0.00 in0.0 mm
12:13 PM 66.8°F19.3°C 26.5°F-3.1°C 22% 13.2 mph WSW21.2 kmh WSW 14.5 mph23.3 kmh 30.21 in1023.0 mb 0.00 in0.0 mm 0.00 in0.0 mm 0.00 in0.0 mm
12:08 PM 66.8°F19.3°C 26.5°F-3.1°C 22% 12.5 mph SW20.1 kmh SW 16.6 mph26.7 kmh 30.21 in1023.0 mb 0.00 in0.0 mm 0.00 in0.0 mm 0.00 in0.0 mm
12:03 PM 67.0°F19.4°C 25.6°F-3.6°C 21% 14.4 mph WSW23.2 kmh WSW 16.6 mph26.7 kmh 30.21 in1023.0 mb 0.00 in0.0 mm 0.00 in0.0 mm 0.00 in0.0 mm
11:58 AM 67.0°F19.4°C 26.6°F-3.0°C 22% 13.9 mph SW22.4 kmh SW 16.1 mph25.9 kmh 30.20 in1022.7 mb 0.00 in0.0 mm 0.00 in0.0 mm 0.00 in0.0 mm
11:53 AM 66.6°F19.2°C 27.3°F-2.6°C 23% 14.6 mph SW23.5 kmh SW 18.6 mph29.9 kmh 30.20 in1022.7 mb 0.00 in0.0 mm 0.00 in0.0 mm 0.00 in0.0 mm
11:48 AM 66.2°F19.0°C 27.0°F-2.8°C 23% 15.4 mph SW24.8 kmh SW 23.9 mph38.5 kmh 30.20 in1022.7 mb 0.00 in0.0 mm 0.00 in0.0 mm 0.00 in0.0 mm
11:43 AM 65.9°F18.8°C 26.6°F-3.0°C 23% 18.5 mph WSW29.8 kmh WSW 23.9 mph38.5 kmh 30.20 in1022.7 mb 0.00 in0.0 mm 0.00 in0.0 mm 0.00 in0.0 mm
11:38 AM 65.5°F18.6°C 26.4°F-3.1°C 23% 15.4 mph SW24.8 kmh SW 22.4 mph36.0 kmh 30.20 in1022.7 mb 0.00 in0.0 mm 0.00 in0.0 mm 0.00 in0.0 mm
11:33 AM 66.1°F18.9°C 25.8°F-3.4°C 22% 18.0 mph SW29.0 kmh SW 22.4 mph36.0 kmh 30.20 in1022.7 mb 0.00 in0.0 mm 0.00 in0.0 mm 0.00 in0.0 mm
11:28 AM 67.3°F19.6°C 27.9°F-2.3°C 23% 17.0 mph SW27.4 kmh SW 19.0 mph30.6 kmh 30.20 in1022.7 mb 0.00 in0.0 mm 0.00 in0.0 mm 0.00 in0.0 mm
11:23 AM 67.9°F19.9°C 28.4°F-2.0°C 23% 12.5 mph WSW20.1 kmh WSW 17.9 mph28.8 kmh 30.21 in1023.0 mb 0.00 in0.0 mm 0.00 in0.0 mm 0.00 in0.0 mm
11:18 AM 67.3°F19.6°C 28.9°F-1.7°C 24% 11.1 mph SW17.9 kmh SW 18.3 mph29.5 kmh 30.21 in1023.0 mb 0.00 in0.0 mm 0.00 in0.0 mm 0.00 in0.0 mm
11:13 AM 67.0°F19.4°C 28.6°F-1.9°C 24% 16.1 mph SW25.9 kmh SW 18.3 mph29.5 kmh 30.21 in1023.0 mb 0.00 in0.0 mm 0.00 in0.0 mm 0.00 in0.0 mm
11:08 AM 66.6°F19.2°C 28.3°F-2.1°C 24% 14.2 mph SW22.9 kmh SW 21.0 mph33.8 kmh 30.20 in1022.7 mb 0.00 in0.0 mm 0.00 in0.0 mm 0.00 in0.0 mm
11:03 AM 66.4°F19.1°C 28.2°F-2.1°C 24% 12.3 mph SW19.8 kmh SW 21.0 mph33.8 kmh 30.20 in1022.7 mb 0.00 in0.0 mm 0.00 in0.0 mm 0.00 in0.0 mm
10:58 AM 66.6°F19.2°C 27.3°F-2.6°C 23% 19.0 mph SW30.6 kmh SW 21.0 mph33.8 kmh 30.21 in1023.0 mb 0.00 in0.0 mm 0.00 in0.0 mm 0.00 in0.0 mm
10:53 AM 66.2°F19.0°C 30.0°F-1.1°C 26% 13.9 mph WSW22.4 kmh WSW 20.1 mph32.3 kmh 30.20 in1022.7 mb 0.00 in0.0 mm 0.00 in0.0 mm 0.00 in0.0 mm
10:48 AM 66.1°F18.9°C 29.8°F-1.2°C 26% 11.8 mph SW19.0 kmh SW 16.3 mph26.2 kmh 30.21 in1023.0 mb 0.00 in0.0 mm 0.00 in0.0 mm 0.00 in0.0 mm
10:43 AM 65.5°F18.6°C 31.4°F-0.3°C 28% 10.1 mph SW16.3 kmh SW 17.9 mph28.8 kmh 30.20 in1022.7 mb 0.00 in0.0 mm 0.00 in0.0 mm 0.00 in0.0 mm
10:38 AM 64.8°F18.2°C 30.8°F-0.7°C 28% 9.7 mph WSW15.6 kmh WSW 18.8 mph30.3 kmh 30.20 in1022.7 mb 0.00 in0.0 mm 0.00 in0.0 mm 0.00 in0.0 mm
10:33 AM 64.4°F18.0°C 30.4°F-0.9°C 28% 13.8 mph SW22.2 kmh SW 19.2 mph30.9 kmh 30.20 in1022.7 mb 0.00 in0.0 mm 0.00 in0.0 mm 0.00 in0.0 mm
10:28 AM 63.9°F17.7°C 29.0°F-1.7°C 27% 14.2 mph SW22.9 kmh SW 24.2 mph38.9 kmh 30.20 in1022.7 mb 0.00 in0.0 mm 0.00 in0.0 mm 0.00 in0.0 mm
10:23 AM 63.2°F17.3°C 26.4°F-3.1°C 25% 22.0 mph SSW35.4 kmh SSW 24.2 mph38.9 kmh 30.20 in1022.7 mb 0.00 in0.0 mm 0.00 in0.0 mm 0.00 in0.0 mm
10:18 AM 63.0°F17.2°C 28.2°F-2.1°C 27% 16.9 mph SW27.2 kmh SW 18.6 mph29.9 kmh 30.20 in1022.7 mb 0.00 in0.0 mm 0.00 in0.0 mm 0.00 in0.0 mm
10:13 AM 62.3°F16.8°C 27.5°F-2.5°C 27% 16.5 mph SW26.6 kmh SW 19.2 mph30.9 kmh 30.20 in1022.7 mb 0.00 in0.0 mm 0.00 in0.0 mm 0.00 in0.0 mm
10:08 AM 61.9°F16.6°C 27.3°F-2.6°C 27% 18.2 mph SW29.3 kmh SW 21.3 mph34.3 kmh 30.20 in1022.7 mb 0.00 in0.0 mm 0.00 in0.0 mm 0.00 in0.0 mm
10:03 AM 61.4°F16.3°C 27.7°F-2.4°C 28% 17.5 mph SW28.2 kmh SW 23.3 mph37.5 kmh 30.20 in1022.7 mb 0.00 in0.0 mm 0.00 in0.0 mm 0.00 in0.0 mm
09:57 AM 61.0°F16.1°C 30.1°F-1.1°C 31% 19.1 mph SW30.7 kmh SW 23.3 mph37.5 kmh 30.20 in1022.7 mb 0.00 in0.0 mm 0.00 in0.0 mm 0.00 in0.0 mm
09:52 AM 60.5°F15.8°C 31.1°F-0.5°C 33% 13.1 mph SW21.1 kmh SW 19.2 mph30.9 kmh 30.20 in1022.7 mb 0.00 in0.0 mm 0.00 in0.0 mm 0.00 in0.0 mm
09:48 AM 60.1°F15.6°C 30.7°F-0.7°C 33% 13.1 mph SW21.1 kmh SW 16.3 mph26.2 kmh 30.20 in1022.7 mb 0.00 in0.0 mm 0.00 in0.0 mm 0.00 in0.0 mm
09:43 AM 59.4°F15.2°C 32.2°F0.1°C 36% 13.5 mph WSW21.7 kmh WSW 18.3 mph29.5 kmh 30.19 in1022.4 mb 0.00 in0.0 mm 0.00 in0.0 mm 0.00 in0.0 mm
09:38 AM 58.7°F14.8°C 31.6°F-0.2°C 36% 16.4 mph SW26.4 kmh SW 18.3 mph29.5 kmh 30.19 in1022.4 mb 0.00 in0.0 mm 0.00 in0.0 mm 0.00 in0.0 mm
09:33 AM 58.0°F14.4°C 32.4°F0.2°C 38% 16.5 mph WSW26.6 kmh WSW 17.9 mph28.8 kmh 30.19 in1022.4 mb 0.00 in0.0 mm 0.00 in0.0 mm 0.00 in0.0 mm
09:28 AM 56.9°F13.8°C 33.4°F0.8°C 41% 11.4 mph SW18.3 kmh SW 15.0 mph24.1 kmh 30.20 in1022.7 mb 0.00 in0.0 mm 0.00 in0.0 mm 0.00 in0.0 mm
09:23 AM 55.6°F13.1°C 32.2°F0.1°C 41% 13.4 mph SW21.6 kmh SW 15.4 mph24.8 kmh 30.19 in1022.4 mb 0.00 in0.0 mm 0.00 in0.0 mm 0.00 in0.0 mm
09:18 AM 54.0°F12.2°C 33.0°F0.6°C 45% 14.4 mph SW23.2 kmh SW 15.4 mph24.8 kmh 30.19 in1022.4 mb 0.00 in0.0 mm 0.00 in0.0 mm 0.00 in0.0 mm
09:13 AM 51.5°F10.8°C 32.4°F0.2°C 48% 10.9 mph SSW17.5 kmh SSW 14.1 mph22.7 kmh 30.20 in1022.7 mb 0.00 in0.0 mm 0.00 in0.0 mm 0.00 in0.0 mm
09:08 AM 49.0°F9.4°C 31.6°F-0.2°C 51% 6.5 mph SSW10.5 kmh SSW 9.4 mph15.1 kmh 30.20 in1022.7 mb 0.00 in0.0 mm 0.00 in0.0 mm 0.00 in0.0 mm
09:03 AM 46.6°F8.1°C 30.8°F-0.7°C 54% 7.9 mph S12.7 kmh S 8.9 mph14.3 kmh 30.20 in1022.7 mb 0.00 in0.0 mm 0.00 in0.0 mm 0.00 in0.0 mm
08:57 AM 45.7°F7.6°C 29.5°F-1.4°C 53% 3.2 mph SW5.1 kmh SW 4.0 mph6.4 kmh 30.20 in1022.7 mb 0.00 in0.0 mm 0.00 in0.0 mm 0.00 in0.0 mm
08:52 AM 45.5°F7.5°C 29.8°F-1.2°C 54% 2.5 mph SW4.0 kmh SW 4.0 mph6.4 kmh 30.20 in1022.7 mb 0.00 in0.0 mm 0.00 in0.0 mm 0.00 in0.0 mm
08:47 AM 45.0°F7.2°C 29.4°F-1.4°C 54% 2.7 mph W4.3 kmh W 3.4 mph5.5 kmh 30.20 in1022.7 mb 0.00 in0.0 mm 0.00 in0.0 mm 0.00 in0.0 mm
08:42 AM 44.6°F7.0°C 29.0°F-1.7°C 54% 1.6 mph NNW2.6 kmh NNW 2.5 mph4.0 kmh 30.20 in1022.7 mb 0.00 in0.0 mm 0.00 in0.0 mm 0.00 in0.0 mm
08:37 AM 44.1°F6.7°C 28.9°F-1.7°C 55% 1.3 mph NNW2.1 kmh NNW 2.7 mph4.3 kmh 30.20 in1022.7 mb 0.00 in0.0 mm 0.00 in0.0 mm 0.00 in0.0 mm
08:32 AM 43.6°F6.4°C 28.8°F-1.8°C 56% 1.5 mph 2.4 kmh 2.7 mph4.3 kmh 30.20 in1022.7 mb 0.00 in0.0 mm 0.00 in0.0 mm 0.00 in0.0 mm
08:27 AM 42.7°F5.9°C 28.5°F-1.9°C 57% 1.9 mph 3.1 kmh 2.5 mph4.0 kmh 30.20 in1022.7 mb 0.00 in0.0 mm 0.00 in0.0 mm 0.00 in0.0 mm
08:22 AM 42.3°F5.7°C 28.1°F-2.2°C 57% 0.7 mph NNE1.1 kmh NNE 2.5 mph4.0 kmh 30.20 in1022.7 mb 0.00 in0.0 mm 0.00 in0.0 mm 0.00 in0.0 mm
08:18 AM 42.1°F5.6°C 28.4°F-2.0°C 58% 2.5 mph 4.0 kmh 3.8 mph6.1 kmh 30.20 in1022.7 mb 0.00 in0.0 mm 0.00 in0.0 mm 0.00 in0.0 mm
08:13 AM 41.8°F5.4°C 28.4°F-2.0°C 59% 1.9 mph N3.1 kmh N 3.8 mph6.1 kmh 30.20 in1022.7 mb 0.00 in0.0 mm 0.00 in0.0 mm 0.00 in0.0 mm
08:08 AM 41.0°F5.0°C 28.6°F-1.9°C 61% 2.2 mph NNW3.5 kmh NNW 2.7 mph4.3 kmh 30.20 in1022.7 mb 0.00 in0.0 mm 0.00 in0.0 mm 0.00 in0.0 mm
08:03 AM 40.0°F4.4°C 28.4°F-2.0°C 63% 0.4 mph NW0.6 kmh NW 1.1 mph1.8 kmh 30.20 in1022.7 mb 0.00 in0.0 mm 0.00 in0.0 mm 0.00 in0.0 mm
07:57 AM 38.5°F3.6°C 27.4°F-2.6°C 64% Calm Calm 1.1 mph1.8 kmh 30.20 in1022.7 mb 0.00 in0.0 mm 0.00 in0.0 mm 0.00 in0.0 mm
07:52 AM 37.1°F2.8°C 26.0°F-3.3°C 64% 0.2 mph ENE0.3 kmh ENE 1.3 mph2.1 kmh 30.20 in1022.7 mb 0.00 in0.0 mm 0.00 in0.0 mm 0.00 in0.0 mm
07:47 AM 35.5°F1.9°C 24.5°F-4.2°C 64% 1.3 mph 2.1 kmh 3.4 mph5.5 kmh 30.20 in1022.7 mb 0.00 in0.0 mm 0.00 in0.0 mm 0.00 in0.0 mm
07:42 AM 34.2°F1.2°C 23.2°F-4.9°C 64% 1.4 mph NNW2.3 kmh NNW 4.5 mph7.2 kmh 30.20 in1022.7 mb 0.00 in0.0 mm 0.00 in0.0 mm 0.00 in0.0 mm
07:37 AM 32.9°F0.5°C 22.4°F-5.3°C 65% 3.5 mph N5.6 kmh N 4.5 mph7.2 kmh 30.20 in1022.7 mb 0.00 in0.0 mm 0.00 in0.0 mm 0.00 in0.0 mm
07:32 AM 31.9°F-0.1°C 21.4°F-5.9°C 65% 1.4 mph 2.3 kmh 4.9 mph7.9 kmh 30.20 in1022.7 mb 0.00 in0.0 mm 0.00 in0.0 mm 0.00 in0.0 mm
07:27 AM 31.3°F-0.4°C 21.2°F-6.0°C 66% 2.8 mph NNW4.5 kmh NNW 4.9 mph7.9 kmh 30.20 in1022.7 mb 0.00 in0.0 mm 0.00 in0.0 mm 0.00 in0.0 mm
07:22 AM 30.6°F-0.8°C 20.5°F-6.4°C 66% 0.5 mph N0.8 kmh N 1.3 mph2.1 kmh 30.20 in1022.7 mb 0.00 in0.0 mm 0.00 in0.0 mm 0.00 in0.0 mm
07:17 AM 30.1°F-1.1°C 20.0°F-6.7°C 66% 1.2 mph ESE1.9 kmh ESE 1.3 mph2.1 kmh 30.19 in1022.4 mb 0.00 in0.0 mm 0.00 in0.0 mm 0.00 in0.0 mm
07:12 AM 29.5°F-1.4°C 19.5°F-6.9°C 66% 0.6 mph ESE1.0 kmh ESE 1.6 mph2.6 kmh 30.19 in1022.4 mb 0.00 in0.0 mm 0.00 in0.0 mm 0.00 in0.0 mm
07:07 AM 29.2°F-1.6°C 18.5°F-7.5°C 64% 1.4 mph SE2.3 kmh SE 1.6 mph2.6 kmh 30.19 in1022.4 mb 0.00 in0.0 mm 0.00 in0.0 mm 0.00 in0.0 mm
07:02 AM 29.2°F-1.6°C 18.5°F-7.5°C 64% Calm Calm 1.3 mph2.1 kmh 30.19 in1022.4 mb 0.00 in0.0 mm 0.00 in0.0 mm 0.00 in0.0 mm
06:57 AM 29.0°F-1.7°C 18.3°F-7.6°C 64% Calm Calm 2.5 mph4.0 kmh 30.19 in1022.4 mb 0.00 in0.0 mm 0.00 in0.0 mm 0.00 in0.0 mm
06:52 AM 28.8°F-1.8°C 17.8°F-7.9°C 63% 0.2 mph 0.3 kmh 3.4 mph5.5 kmh 30.19 in1022.4 mb 0.00 in0.0 mm 0.00 in0.0 mm 0.00 in0.0 mm
06:47 AM 28.3°F-2.1°C 16.9°F-8.4°C 62% 2.6 mph 4.2 kmh 5.4 mph8.7 kmh 30.19 in1022.4 mb 0.00 in0.0 mm 0.00 in0.0 mm 0.00 in0.0 mm
06:42 AM 27.9°F-2.3°C 16.6°F-8.6°C 62% 2.2 mph NE3.5 kmh NE 6.3 mph10.1 kmh 30.18 in1022.0 mb 0.00 in0.0 mm 0.00 in0.0 mm 0.00 in0.0 mm
06:37 AM 27.7°F-2.4°C 16.4°F-8.7°C 62% 2.5 mph NE4.0 kmh NE 6.3 mph10.1 kmh 30.19 in1022.4 mb 0.00 in0.0 mm 0.00 in0.0 mm 0.00 in0.0 mm
06:32 AM 27.7°F-2.4°C 16.0°F-8.9°C 61% 2.5 mph N4.0 kmh N 4.0 mph6.4 kmh 30.18 in1022.0 mb 0.00 in0.0 mm 0.00 in0.0 mm 0.00 in0.0 mm
06:27 AM 27.7°F-2.4°C 16.4°F-8.7°C 62% 1.8 mph NNW2.9 kmh NNW 3.1 mph5.0 kmh 30.18 in1022.0 mb 0.00 in0.0 mm 0.00 in0.0 mm 0.00 in0.0 mm
06:22 AM 27.9°F-2.3°C 16.2°F-8.8°C 61% Calm Calm 1.6 mph2.6 kmh 30.18 in1022.0 mb 0.00 in0.0 mm 0.00 in0.0 mm 0.00 in0.0 mm
06:17 AM 28.3°F-2.1°C 16.6°F-8.6°C 61% 0.8 mph NNW1.3 kmh NNW 0.9 mph1.4 kmh 30.18 in1022.0 mb 0.00 in0.0 mm 0.00 in0.0 mm 0.00 in0.0 mm
06:12 AM 28.6°F-1.9°C 16.9°F-8.4°C 61% Calm Calm 0.9 mph1.4 kmh 30.18 in1022.0 mb 0.00 in0.0 mm 0.00 in0.0 mm 0.00 in0.0 mm
06:07 AM 29.2°F-1.6°C 17.7°F-7.9°C 62% 0.6 mph SSE1.0 kmh SSE 0.9 mph1.4 kmh 30.18 in1022.0 mb 0.00 in0.0 mm 0.00 in0.0 mm 0.00 in0.0 mm
06:02 AM 29.3°F-1.5°C 17.9°F-7.8°C 62% Calm Calm 1.8 mph2.9 kmh 30.17 in1021.7 mb 0.00 in0.0 mm 0.00 in0.0 mm 0.00 in0.0 mm
05:57 AM 29.5°F-1.4°C 18.1°F-7.7°C 62% 0.4 mph ESE0.6 kmh ESE 2.9 mph4.7 kmh 30.17 in1021.7 mb 0.00 in0.0 mm 0.00 in0.0 mm 0.00 in0.0 mm
05:52 AM 29.5°F-1.4°C 18.1°F-7.7°C 62% Calm Calm 3.6 mph5.8 kmh 30.17 in1021.7 mb 0.00 in0.0 mm 0.00 in0.0 mm 0.00 in0.0 mm
05:47 AM 29.7°F-1.3°C 17.6°F-8.0°C 60% 2.5 mph E4.0 kmh E 4.0 mph6.4 kmh 30.17 in1021.7 mb 0.00 in0.0 mm 0.00 in0.0 mm 0.00 in0.0 mm
05:42 AM 30.2°F-1.0°C 18.0°F-7.8°C 60% 3.7 mph SE6.0 kmh SE 4.0 mph6.4 kmh 30.16 in1021.3 mb 0.00 in0.0 mm 0.00 in0.0 mm 0.00 in0.0 mm
05:37 AM 30.4°F-0.9°C 18.5°F-7.5°C 61% Calm Calm 4.7 mph7.6 kmh 30.16 in1021.3 mb 0.00 in0.0 mm 0.00 in0.0 mm 0.00 in0.0 mm
05:32 AM 30.2°F-1.0°C 18.0°F-7.8°C 60% 2.5 mph NNE4.0 kmh NNE 4.9 mph7.9 kmh 30.16 in1021.3 mb 0.00 in0.0 mm 0.00 in0.0 mm 0.00 in0.0 mm
05:27 AM 29.7°F-1.3°C 17.1°F-8.3°C 59% 4.6 mph 7.4 kmh 4.9 mph7.9 kmh 30.16 in1021.3 mb 0.00 in0.0 mm 0.00 in0.0 mm 0.00 in0.0 mm
05:22 AM 29.9°F-1.2°C 16.8°F-8.4°C 58% 0.4 mph NNE0.6 kmh NNE 1.1 mph1.8 kmh 30.16 in1021.3 mb 0.00 in0.0 mm 0.00 in0.0 mm 0.00 in0.0 mm
05:17 AM 30.4°F-0.9°C 17.7°F-7.9°C 59% Calm Calm 1.1 mph1.8 kmh 30.16 in1021.3 mb 0.00 in0.0 mm 0.00 in0.0 mm 0.00 in0.0 mm
05:12 AM 30.8°F-0.7°C 18.5°F-7.5°C 60% Calm Calm 1.6 mph2.6 kmh 30.15 in1021.0 mb 0.00 in0.0 mm 0.00 in0.0 mm 0.00 in0.0 mm
05:07 AM 30.8°F-0.7°C 18.5°F-7.5°C 60% Calm Calm 2.5 mph4.0 kmh 30.15 in1021.0 mb 0.00 in0.0 mm 0.00 in0.0 mm 0.00 in0.0 mm
05:02 AM 30.4°F-0.9°C 17.7°F-7.9°C 59% 2.3 mph NNE3.7 kmh NNE 5.4 mph8.7 kmh 30.15 in1021.0 mb 0.00 in0.0 mm 0.00 in0.0 mm 0.00 in0.0 mm
04:56 AM 30.1°F-1.1°C 17.0°F-8.3°C 58% 2.9 mph 4.7 kmh 5.4 mph8.7 kmh 30.15 in1021.0 mb 0.00 in0.0 mm 0.00 in0.0 mm 0.00 in0.0 mm
04:51 AM 30.2°F-1.0°C 17.2°F-8.2°C 58% 4.0 mph N6.4 kmh N 4.0 mph6.4 kmh 30.15 in1021.0 mb 0.00 in0.0 mm 0.00 in0.0 mm 0.00 in0.0 mm
04:46 AM 31.0°F-0.6°C 18.3°F-7.6°C 59% 2.1 mph WNW3.4 kmh WNW 2.2 mph3.5 kmh 30.15 in1021.0 mb 0.00 in0.0 mm 0.00 in0.0 mm 0.00 in0.0 mm
04:41 AM 31.3°F-0.4°C 19.1°F-7.2°C 60% 0.2 mph SE0.3 kmh SE 2.5 mph4.0 kmh 30.14 in1020.7 mb 0.00 in0.0 mm 0.00 in0.0 mm 0.00 in0.0 mm
04:37 AM 31.1°F-0.5°C 18.5°F-7.5°C 59% 1.3 mph NE2.1 kmh NE 3.4 mph5.5 kmh 30.14 in1020.7 mb 0.00 in0.0 mm 0.00 in0.0 mm 0.00 in0.0 mm
04:32 AM 31.1°F-0.5°C 18.1°F-7.7°C 58% 1.9 mph N3.1 kmh N 4.7 mph7.6 kmh 30.14 in1020.7 mb 0.00 in0.0 mm 0.00 in0.0 mm 0.00 in0.0 mm
04:27 AM 31.0°F-0.6°C 17.5°F-8.1°C 57% 0.3 mph 0.5 kmh 5.4 mph8.7 kmh 30.14 in1020.7 mb 0.00 in0.0 mm 0.00 in0.0 mm 0.00 in0.0 mm
04:22 AM 30.4°F-0.9°C 16.6°F-8.6°C 56% 4.1 mph N6.6 kmh N 5.4 mph8.7 kmh 30.14 in1020.7 mb 0.00 in0.0 mm 0.00 in0.0 mm 0.00 in0.0 mm
04:17 AM 30.2°F-1.0°C 16.4°F-8.7°C 56% 1.1 mph NNE1.8 kmh NNE 2.5 mph4.0 kmh 30.14 in1020.7 mb 0.00 in0.0 mm 0.00 in0.0 mm 0.00 in0.0 mm
04:12 AM 30.6°F-0.8°C 16.7°F-8.5°C 56% 1.1 mph 1.8 kmh 1.1 mph1.8 kmh 30.14 in1020.7 mb 0.00 in0.0 mm 0.00 in0.0 mm 0.00 in0.0 mm
04:07 AM 31.0°F-0.6°C 17.5°F-8.1°C 57% 1.1 mph 1.8 kmh 1.1 mph1.8 kmh 30.14 in1020.7 mb 0.00 in0.0 mm 0.00 in0.0 mm 0.00 in0.0 mm
04:02 AM 31.3°F-0.4°C 17.8°F-7.9°C 57% Calm Calm 0.9 mph1.4 kmh 30.14 in1020.7 mb 0.00 in0.0 mm 0.00 in0.0 mm 0.00 in0.0 mm
03:56 AM 31.3°F-0.4°C 17.8°F-7.9°C 57% 0.9 mph ESE1.4 kmh ESE 0.9 mph1.4 kmh 30.14 in1020.7 mb 0.00 in0.0 mm 0.00 in0.0 mm 0.00 in0.0 mm
03:51 AM 31.3°F-0.4°C 16.9°F-8.4°C 55% 0.2 mph ESE0.3 kmh ESE 2.2 mph3.5 kmh 30.14 in1020.7 mb 0.00 in0.0 mm 0.00 in0.0 mm 0.00 in0.0 mm
03:46 AM 31.3°F-0.4°C 16.9°F-8.4°C 55% 0.9 mph ENE1.4 kmh ENE 2.5 mph4.0 kmh 30.14 in1020.7 mb 0.00 in0.0 mm 0.00 in0.0 mm 0.00 in0.0 mm
03:41 AM 31.3°F-0.4°C 16.6°F-8.6°C 54% 1.5 mph NE2.4 kmh NE 2.9 mph4.7 kmh 30.14 in1020.7 mb 0.00 in0.0 mm 0.00 in0.0 mm 0.00 in0.0 mm
03:36 AM 31.3°F-0.4°C 16.6°F-8.6°C 54% 2.0 mph ENE3.2 kmh ENE 2.9 mph4.7 kmh 30.14 in1020.7 mb 0.00 in0.0 mm 0.00 in0.0 mm 0.00 in0.0 mm
03:31 AM 31.7°F-0.2°C 16.5°F-8.6°C 53% 1.0 mph S1.6 kmh S 2.5 mph4.0 kmh 30.14 in1020.7 mb 0.00 in0.0 mm 0.00 in0.0 mm 0.00 in0.0 mm
03:26 AM 32.2°F0.1°C 17.4°F-8.1°C 54% 1.1 mph 1.8 kmh 2.9 mph4.7 kmh 30.14 in1020.7 mb 0.00 in0.0 mm 0.00 in0.0 mm 0.00 in0.0 mm
03:21 AM 32.8°F0.4°C 17.8°F-7.9°C 54% 1.7 mph NNE2.7 kmh NNE 2.9 mph4.7 kmh 30.14 in1020.7 mb 0.00 in0.0 mm 0.00 in0.0 mm 0.00 in0.0 mm
03:16 AM 33.1°F0.6°C 18.6°F-7.4°C 55% 0.2 mph NE0.3 kmh NE 3.1 mph5.0 kmh 30.14 in1020.7 mb 0.00 in0.0 mm 0.00 in0.0 mm 0.00 in0.0 mm
03:11 AM 32.9°F0.5°C 18.5°F-7.5°C 55% 0.6 mph NE1.0 kmh NE 3.1 mph5.0 kmh 30.14 in1020.7 mb 0.00 in0.0 mm 0.00 in0.0 mm 0.00 in0.0 mm
03:07 AM 32.6°F0.3°C 17.7°F-7.9°C 54% 2.9 mph NE4.7 kmh NE 3.1 mph5.0 kmh 30.14 in1020.7 mb 0.00 in0.0 mm 0.00 in0.0 mm 0.00 in0.0 mm
03:02 AM 32.2°F0.1°C 17.4°F-8.1°C 54% 0.2 mph NNW0.3 kmh NNW 0.2 mph0.3 kmh 30.14 in1020.7 mb 0.00 in0.0 mm 0.00 in0.0 mm 0.00 in0.0 mm
02:56 AM 32.2°F0.1°C 16.9°F-8.4°C 53% Calm Calm 0.4 mph0.6 kmh 30.14 in1020.7 mb 0.00 in0.0 mm 0.00 in0.0 mm 0.00 in0.0 mm
02:51 AM 32.4°F0.2°C 16.7°F-8.5°C 52% 0.2 mph NE0.3 kmh NE 2.5 mph4.0 kmh 30.14 in1020.7 mb 0.00 in0.0 mm 0.00 in0.0 mm 0.00 in0.0 mm
02:46 AM 32.8°F0.4°C 17.5°F-8.1°C 53% 1.8 mph NNW2.9 kmh NNW 4.0 mph6.4 kmh 30.14 in1020.7 mb 0.00 in0.0 mm 0.00 in0.0 mm 0.00 in0.0 mm
02:41 AM 32.8°F0.4°C 17.8°F-7.9°C 54% 0.9 mph ENE1.4 kmh ENE 4.0 mph6.4 kmh 30.14 in1020.7 mb 0.00 in0.0 mm 0.00 in0.0 mm 0.00 in0.0 mm
02:36 AM 32.8°F0.4°C 17.5°F-8.1°C 53% 3.5 mph ENE5.6 kmh ENE 3.6 mph5.8 kmh 30.14 in1020.7 mb 0.00 in0.0 mm 0.00 in0.0 mm 0.00 in0.0 mm
02:31 AM 33.1°F0.6°C 16.9°F-8.4°C 51% 1.8 mph E2.9 kmh E 2.0 mph3.2 kmh 30.14 in1020.7 mb 0.00 in0.0 mm 0.00 in0.0 mm 0.00 in0.0 mm
02:26 AM 33.7°F0.9°C 16.9°F-8.4°C 50% 1.1 mph ESE1.8 kmh ESE 1.6 mph2.6 kmh 30.14 in1020.7 mb 0.00 in0.0 mm 0.00 in0.0 mm 0.00 in0.0 mm
02:21 AM 34.2°F1.2°C 16.9°F-8.4°C 49% Calm Calm 3.6 mph5.8 kmh 30.14 in1020.7 mb 0.00 in0.0 mm 0.00 in0.0 mm 0.00 in0.0 mm
02:16 AM 35.1°F1.7°C 18.8°F-7.3°C 51% 2.0 mph NW3.2 kmh NW 3.6 mph5.8 kmh 30.14 in1020.7 mb 0.00 in0.0 mm 0.00 in0.0 mm 0.00 in0.0 mm
02:11 AM 34.9°F1.6°C 18.6°F-7.4°C 51% 2.0 mph NE3.2 kmh NE 2.5 mph4.0 kmh 30.14 in1020.7 mb 0.00 in0.0 mm 0.00 in0.0 mm 0.00 in0.0 mm
02:06 AM 34.9°F1.6°C 17.6°F-8.0°C 49% 1.4 mph NNE2.3 kmh NNE 2.0 mph3.2 kmh 30.14 in1020.7 mb 0.00 in0.0 mm 0.00 in0.0 mm 0.00 in0.0 mm
02:01 AM 34.9°F1.6°C 18.2°F-7.7°C 50% 1.5 mph N2.4 kmh N 2.0 mph3.2 kmh 30.14 in1020.7 mb 0.00 in0.0 mm 0.00 in0.0 mm 0.00 in0.0 mm
01:56 AM 35.3°F1.8°C 18.5°F-7.5°C 50% 0.4 mph NNW0.6 kmh NNW 1.1 mph1.8 kmh 30.14 in1020.7 mb 0.00 in0.0 mm 0.00 in0.0 mm 0.00 in0.0 mm
01:51 AM 35.6°F2.0°C 18.9°F-7.3°C 50% 1.1 mph NNW1.8 kmh NNW 1.1 mph1.8 kmh 30.14 in1020.7 mb 0.00 in0.0 mm 0.00 in0.0 mm 0.00 in0.0 mm
01:46 AM 35.8°F2.1°C 19.1°F-7.2°C 50% Calm Calm 1.3 mph2.1 kmh 30.14 in1020.7 mb 0.00 in0.0 mm 0.00 in0.0 mm 0.00 in0.0 mm
01:41 AM 36.2°F2.3°C 18.4°F-7.6°C 48% 0.8 mph N1.3 kmh N 1.3 mph2.1 kmh 30.14 in1020.7 mb 0.00 in0.0 mm 0.00 in0.0 mm 0.00 in0.0 mm
01:36 AM 36.9°F2.7°C 19.5°F-6.9°C 49% 0.8 mph 1.3 kmh 1.1 mph1.8 kmh 30.14 in1020.7 mb 0.00 in0.0 mm 0.00 in0.0 mm 0.00 in0.0 mm
01:31 AM 37.1°F2.8°C 20.2°F-6.6°C 50% 0.7 mph NNW1.1 kmh NNW 2.5 mph4.0 kmh 30.14 in1020.7 mb 0.00 in0.0 mm 0.00 in0.0 mm 0.00 in0.0 mm
01:26 AM 37.1°F2.8°C 19.7°F-6.8°C 49% 0.4 mph ENE0.6 kmh ENE 2.5 mph4.0 kmh 30.14 in1020.7 mb 0.00 in0.0 mm 0.00 in0.0 mm 0.00 in0.0 mm
01:21 AM 36.7°F2.6°C 18.8°F-7.3°C 48% 1.9 mph NNE3.1 kmh NNE 2.5 mph4.0 kmh 30.14 in1020.7 mb 0.00 in0.0 mm 0.00 in0.0 mm 0.00 in0.0 mm
01:16 AM 36.7°F2.6°C 18.3°F-7.6°C 47% 1.9 mph NE3.1 kmh NE 2.5 mph4.0 kmh 30.14 in1020.7 mb 0.00 in0.0 mm 0.00 in0.0 mm 0.00 in0.0 mm
01:11 AM 37.1°F2.8°C 18.6°F-7.4°C 47% 0.9 mph W1.4 kmh W 1.6 mph2.6 kmh 30.14 in1020.7 mb 0.00 in0.0 mm 0.00 in0.0 mm 0.00 in0.0 mm
01:06 AM 37.4°F3.0°C 19.0°F-7.2°C 47% 0.9 mph SW1.4 kmh SW 1.1 mph1.8 kmh 30.14 in1020.7 mb 0.00 in0.0 mm 0.00 in0.0 mm 0.00 in0.0 mm
01:01 AM 37.8°F3.2°C 19.8°F-6.8°C 48% 0.9 mph SW1.4 kmh SW 2.5 mph4.0 kmh 30.14 in1020.7 mb 0.00 in0.0 mm 0.00 in0.0 mm 0.00 in0.0 mm
12:55 AM 37.6°F3.1°C 18.6°F-7.4°C 46% 1.2 mph 1.9 kmh 2.5 mph4.0 kmh 30.13 in1020.3 mb 0.00 in0.0 mm 0.00 in0.0 mm 0.00 in0.0 mm
12:50 AM 37.8°F3.2°C 18.7°F-7.4°C 46% 1.9 mph ENE3.1 kmh ENE 2.2 mph3.5 kmh 30.13 in1020.3 mb 0.00 in0.0 mm 0.00 in0.0 mm 0.00 in0.0 mm
12:45 AM 38.0°F3.3°C 18.9°F-7.3°C 46% Calm Calm 0.2 mph0.3 kmh 30.13 in1020.3 mb 0.00 in0.0 mm 0.00 in0.0 mm 0.00 in0.0 mm
12:40 AM 38.5°F3.6°C 18.9°F-7.3°C 45% Calm Calm 0.2 mph0.3 kmh 30.14 in1020.7 mb 0.00 in0.0 mm 0.00 in0.0 mm 0.00 in0.0 mm
12:36 AM 39.1°F3.9°C 19.4°F-7.0°C 45% 0.2 mph NNW0.3 kmh NNW 0.2 mph0.3 kmh 30.14 in1020.7 mb 0.00 in0.0 mm 0.00 in0.0 mm 0.00 in0.0 mm
12:31 AM 39.2°F4.0°C 20.1°F-6.6°C 46% Calm Calm 2.0 mph3.2 kmh 30.13 in1020.3 mb 0.00 in0.0 mm 0.00 in0.0 mm 0.00 in0.0 mm
12:26 AM 39.4°F4.1°C 19.7°F-6.8°C 45% 1.5 mph ENE2.4 kmh ENE 2.0 mph3.2 kmh 30.13 in1020.3 mb 0.00 in0.0 mm 0.00 in0.0 mm 0.00 in0.0 mm
12:21 AM 40.0°F4.4°C 20.2°F-6.6°C 45% 1.8 mph ENE2.9 kmh ENE 2.5 mph4.0 kmh 30.13 in1020.3 mb 0.00 in0.0 mm 0.00 in0.0 mm 0.00 in0.0 mm
12:16 AM 40.0°F4.4°C 20.2°F-6.6°C 45% 0.9 mph NNE1.4 kmh NNE 2.5 mph4.0 kmh 30.14 in1020.7 mb 0.00 in0.0 mm 0.00 in0.0 mm 0.00 in0.0 mm
12:11 AM 40.0°F4.4°C 19.6°F-6.9°C 44% 2.3 mph NNE3.7 kmh NNE 2.5 mph4.0 kmh 30.14 in1020.7 mb 0.00 in0.0 mm 0.00 in0.0 mm 0.00 in0.0 mm
12:06 AM 39.8°F4.3°C 19.0°F-7.2°C 43% 2.0 mph 3.2 kmh 2.5 mph4.0 kmh 30.14 in1020.7 mb 0.00 in0.0 mm 0.00 in0.0 mm 0.00 in0.0 mm
12:01 AM 40.0°F4.4°C 19.2°F-7.1°C 43% 0.5 mph NNE0.8 kmh NNE 0.7 mph1.1 kmh 30.14 in1020.7 mb 0.00 in0.0 mm 0.00 in0.0 mm 0.00 in0.0 mm